sensor_id;sensor_type;location;lat;lon;timestamp;pressure;altitude;pressure_sealevel;temperature;humidity
33163;BME280;29282;45.656;11.302;2023-04-01T00:01:18;97180.66;;;18.46;48.98
33163;BME280;29282;45.656;11.302;2023-04-01T00:03:45;97193.19;;;18.47;48.97
33163;BME280;29282;45.656;11.302;2023-04-01T00:06:15;97193.19;;;18.47;49.05
33163;BME280;29282;45.656;11.302;2023-04-01T00:08:40;97191.28;;;18.48;48.96
33163;BME280;29282;45.656;11.302;2023-04-01T00:11:06;97192.84;;;18.49;48.81
33163;BME280;29282;45.656;11.302;2023-04-01T00:13:31;97191.69;;;18.50;48.83
33163;BME280;29282;45.656;11.302;2023-04-01T00:15:57;97184.25;;;18.50;48.72
33163;BME280;29282;45.656;11.302;2023-04-01T00:18:23;97192.13;;;18.52;48.63
33163;BME280;29282;45.656;11.302;2023-04-01T00:20:50;97196.03;;;18.51;48.63
33163;BME280;29282;45.656;11.302;2023-04-01T00:23:16;97199.19;;;18.53;48.55
33163;BME280;29282;45.656;11.302;2023-04-01T00:25:43;97198.84;;;18.54;48.55
33163;BME280;29282;45.656;11.302;2023-04-01T00:28:10;97194.50;;;18.53;48.50
33163;BME280;29282;45.656;11.302;2023-04-01T00:30:36;97200.00;;;18.53;48.50
33163;BME280;29282;45.656;11.302;2023-04-01T00:33:02;97195.28;;;18.54;48.38
33163;BME280;29282;45.656;11.302;2023-04-01T00:35:28;97189.81;;;18.54;48.38
33163;BME280;29282;45.656;11.302;2023-04-01T00:37:53;97200.34;;;18.52;48.48
33163;BME280;29282;45.656;11.302;2023-04-01T00:40:27;97193.72;;;18.53;48.43
33163;BME280;29282;45.656;11.302;2023-04-01T00:42:53;97193.72;;;18.53;48.31
33163;BME280;29282;45.656;11.302;2023-04-01T00:45:35;97192.91;;;18.52;48.42
33163;BME280;29282;45.656;11.302;2023-04-01T00:48:11;97193.72;;;18.53;48.29
33163;BME280;29282;45.656;11.302;2023-04-01T00:50:40;97191.34;;;18.51;48.38
33163;BME280;29282;45.656;11.302;2023-04-01T00:53:08;97192.47;;;18.50;48.30
33163;BME280;29282;45.656;11.302;2023-04-01T00:55:37;97191.69;;;18.50;48.42
33163;BME280;29282;45.656;11.302;2023-04-01T00:58:05;97186.66;;;18.52;48.17
33163;BME280;29282;45.656;11.302;2023-04-01T01:00:33;97187.44;;;18.52;48.29
33163;BME280;29282;45.656;11.302;2023-04-01T01:02:59;97188.22;;;18.53;48.29
33163;BME280;29282;45.656;11.302;2023-04-01T01:08:51;97200.34;;;18.52;48.17
33163;BME280;29282;45.656;11.302;2023-04-01T01:11:25;97200.72;;;18.50;48.26
33163;BME280;29282;45.656;11.302;2023-04-01T01:16:50;97201.53;;;18.51;48.22
33163;BME280;29282;45.656;11.302;2023-04-01T01:19:40;97202.25;;;18.48;48.26
33163;BME280;29282;45.656;11.302;2023-04-01T01:27:29;97198.34;;;18.49;48.22
33163;BME280;29282;45.656;11.302;2023-04-01T01:35:24;97196.03;;;18.51;48.17
33163;BME280;29282;45.656;11.302;2023-04-01T01:37:59;97192.84;;;18.49;48.14
33163;BME280;29282;45.656;11.302;2023-04-01T01:40:27;97199.50;;;18.48;48.17
33163;BME280;29282;45.656;11.302;2023-04-01T01:42:57;97202.25;;;18.48;47.92
33163;BME280;29282;45.656;11.302;2023-04-01T01:45:26;97188.53;;;18.48;48.04
33163;BME280;29282;45.656;11.302;2023-04-01T01:47:53;97197.19;;;18.50;47.95
33163;BME280;29282;45.656;11.302;2023-04-01T01:50:21;97197.56;;;18.48;47.89
33163;BME280;29282;45.656;11.302;2023-04-01T01:52:48;97188.53;;;18.48;48.05
33163;BME280;29282;45.656;11.302;2023-04-01T01:58:04;97183.03;;;18.48;47.96
33163;BME280;29282;45.656;11.302;2023-04-01T02:00:30;97181.88;;;18.49;47.93
33163;BME280;29282;45.656;11.302;2023-04-01T02:02:58;97175.94;;;18.47;47.86
33163;BME280;29282;45.656;11.302;2023-04-01T02:05:25;97184.19;;;18.47;48.06
33163;BME280;29282;45.656;11.302;2023-04-01T02:08:06;97175.94;;;18.47;47.72
33163;BME280;29282;45.656;11.302;2023-04-01T02:10:36;97178.34;;;18.48;47.94
33163;BME280;29282;45.656;11.302;2023-04-01T02:13:10;97183.03;;;18.48;47.90
33163;BME280;29282;45.656;11.302;2023-04-01T02:15:42;97180.31;;;18.48;47.89
33163;BME280;29282;45.656;11.302;2023-04-01T02:18:12;97178.34;;;18.48;47.80
33163;BME280;29282;45.656;11.302;2023-04-01T02:20:39;97183.47;;;18.50;47.84
33163;BME280;29282;45.656;11.302;2023-04-01T02:23:06;97185.78;;;18.48;47.90
33163;BME280;29282;45.656;11.302;2023-04-01T02:25:35;97194.44;;;18.50;47.88
33163;BME280;29282;45.656;11.302;2023-04-01T02:28:04;97192.84;;;18.49;47.88
33163;BME280;29282;45.656;11.302;2023-04-01T02:30:33;97197.19;;;18.50;47.80
33163;BME280;29282;45.656;11.302;2023-04-01T02:33:00;97198.34;;;18.49;47.65
33163;BME280;29282;45.656;11.302;2023-04-01T02:35:26;97206.19;;;18.50;47.79
33163;BME280;29282;45.656;11.302;2023-04-01T02:37:54;97198.78;;;18.51;47.90
33163;BME280;29282;45.656;11.302;2023-04-01T02:40:20;97195.22;;;18.50;47.55
33163;BME280;29282;45.656;11.302;2023-04-01T02:42:45;97189.72;;;18.50;47.73
33163;BME280;29282;45.656;11.302;2023-04-01T02:45:12;97183.03;;;18.48;47.58
33163;BME280;29282;45.656;11.302;2023-04-01T02:47:38;97182.31;;;18.51;47.73
33163;BME280;29282;45.656;11.302;2023-04-01T02:50:04;97190.56;;;18.51;47.55
33163;BME280;29282;45.656;11.302;2023-04-01T02:52:30;97183.91;;;18.52;47.28
33163;BME280;29282;45.656;11.302;2023-04-01T02:54:57;97174.09;;;18.51;47.74
33163;BME280;29282;45.656;11.302;2023-04-01T02:57:23;97180.78;;;18.53;47.48
33163;BME280;29282;45.656;11.302;2023-04-01T02:59:49;97176.84;;;18.51;47.59
33163;BME280;29282;45.656;11.302;2023-04-01T03:02:15;97170.19;;;18.52;47.57
33163;BME280;29282;45.656;11.302;2023-04-01T03:04:41;97165.50;;;18.52;47.59
33163;BME280;29282;45.656;11.302;2023-04-01T03:07:07;97162.75;;;18.52;47.46
33163;BME280;29282;45.656;11.302;2023-04-01T03:09:33;97169.81;;;18.53;47.51
33163;BME280;29282;45.656;11.302;2023-04-01T03:11:59;97171.78;;;18.53;47.41
33163;BME280;29282;45.656;11.302;2023-04-01T03:14:25;97174.50;;;18.53;47.48
33163;BME280;29282;45.656;11.302;2023-04-01T03:16:50;97177.25;;;18.53;47.47
33163;BME280;29282;45.656;11.302;2023-04-01T03:19:16;97170.19;;;18.52;47.37
33163;BME280;29282;45.656;11.302;2023-04-01T03:21:41;97172.94;;;18.52;47.52
33163;BME280;29282;45.656;11.302;2023-04-01T03:24:07;97175.69;;;18.52;47.29
33163;BME280;29282;45.656;11.302;2023-04-01T03:26:33;97173.72;;;18.52;47.43
33163;BME280;29282;45.656;11.302;2023-04-01T03:28:58;97170.97;;;18.52;47.24
33163;BME280;29282;45.656;11.302;2023-04-01T03:31:24;97163.53;;;18.53;47.39
33163;BME280;29282;45.656;11.302;2023-04-01T03:33:50;97166.28;;;18.53;47.30
33163;BME280;29282;45.656;11.302;2023-04-01T03:36:15;97166.28;;;18.53;47.39
33163;BME280;29282;45.656;11.302;2023-04-01T03:38:41;97166.28;;;18.53;47.26
33163;BME280;29282;45.656;11.302;2023-04-01T03:41:07;97169.03;;;18.53;47.22
33163;BME280;29282;45.656;11.302;2023-04-01T03:43:36;97168.63;;;18.51;47.37
33163;BME280;29282;45.656;11.302;2023-04-01T03:46:02;97164.72;;;18.52;47.28
33163;BME280;29282;45.656;11.302;2023-04-01T03:48:27;97160.38;;;18.51;47.31
33163;BME280;29282;45.656;11.302;2023-04-01T03:50:53;97157.63;;;18.51;47.22
33163;BME280;29282;45.656;11.302;2023-04-01T03:53:18;97154.06;;;18.50;47.23
33163;BME280;29282;45.656;11.302;2023-04-01T03:55:44;97146.66;;;18.51;47.17
33163;BME280;29282;45.656;11.302;2023-04-01T03:58:10;97149.41;;;18.51;47.32
33163;BME280;29282;45.656;11.302;2023-04-01T04:00:36;97145.84;;;18.50;47.12
33163;BME280;29282;45.656;11.302;2023-04-01T04:03:02;97154.91;;;18.51;47.17
33163;BME280;29282;45.656;11.302;2023-04-01T04:05:27;97143.94;;;18.51;47.26
33163;BME280;29282;45.656;11.302;2023-04-01T04:07:54;97147.47;;;18.51;47.13
33163;BME280;29282;45.656;11.302;2023-04-01T04:10:20;97161.16;;;18.51;47.20
33163;BME280;29282;45.656;11.302;2023-04-01T04:12:45;97158.44;;;18.51;47.08
33163;BME280;29282;45.656;11.302;2023-04-01T04:15:11;97161.16;;;18.51;47.24
33163;BME280;29282;45.656;11.302;2023-04-01T04:17:37;97163.91;;;18.51;47.05
33163;BME280;29282;45.656;11.302;2023-04-01T04:20:03;97168.63;;;18.51;47.01
33163;BME280;29282;45.656;11.302;2023-04-01T04:22:28;97164.72;;;18.52;47.06
33163;BME280;29282;45.656;11.302;2023-04-01T04:24:54;97166.66;;;18.51;47.17
33163;BME280;29282;45.656;11.302;2023-04-01T04:27:19;97163.91;;;18.51;47.14
33163;BME280;29282;45.656;11.302;2023-04-01T04:29:45;97174.88;;;18.51;47.08
33163;BME280;29282;45.656;11.302;2023-04-01T04:32:11;97166.66;;;18.51;47.14
33163;BME280;29282;45.656;11.302;2023-04-01T04:34:36;97179.22;;;18.52;47.09
33163;BME280;29282;45.656;11.302;2023-04-01T04:37:02;97171.34;;;18.51;47.09
33163;BME280;29282;45.656;11.302;2023-04-01T04:39:27;97174.09;;;18.51;46.95
33163;BME280;29282;45.656;11.302;2023-04-01T04:41:53;97181.16;;;18.52;47.03
33163;BME280;29282;45.656;11.302;2023-04-01T04:44:19;97179.59;;;18.51;47.06
33163;BME280;29282;45.656;11.302;2023-04-01T04:46:44;97185.84;;;18.51;46.95
33163;BME280;29282;45.656;11.302;2023-04-01T04:49:10;97180.38;;;18.51;46.96
33163;BME280;29282;45.656;11.302;2023-04-01T04:51:35;97185.06;;;18.51;47.00
33163;BME280;29282;45.656;11.302;2023-04-01T04:54:04;97178.75;;;18.50;46.95
33163;BME280;29282;45.656;11.302;2023-04-01T04:56:31;97183.91;;;18.52;46.86
33163;BME280;29282;45.656;11.302;2023-04-01T04:58:58;97183.13;;;18.51;46.94
33163;BME280;29282;45.656;11.302;2023-04-01T05:01:23;97190.97;;;18.53;46.86
33163;BME280;29282;45.656;11.302;2023-04-01T05:03:49;97190.97;;;18.53;46.76
33163;BME280;29282;45.656;11.302;2023-04-01T05:06:16;97199.19;;;18.53;46.74
33163;BME280;29282;45.656;11.302;2023-04-01T05:08:43;97199.19;;;18.53;46.72
33163;BME280;29282;45.656;11.302;2023-04-01T05:11:14;97198.41;;;18.52;46.74
33163;BME280;29282;45.656;11.302;2023-04-01T05:13:41;97203.53;;;18.54;46.81
33163;BME280;29282;45.656;11.302;2023-04-01T05:16:10;97201.59;;;18.54;46.65
33163;BME280;29282;45.656;11.302;2023-04-01T05:18:36;97195.28;;;18.54;46.70
33163;BME280;29282;45.656;11.302;2023-04-01T05:21:02;97200.00;;;18.53;46.81
33163;BME280;29282;45.656;11.302;2023-04-01T05:23:27;97204.34;;;18.54;46.83
33163;BME280;29282;45.656;11.302;2023-04-01T05:25:53;97205.13;;;18.55;46.64
33163;BME280;29282;45.656;11.302;2023-04-01T05:28:19;97206.25;;;18.54;46.62
33163;BME280;29282;45.656;11.302;2023-04-01T05:30:45;97201.59;;;18.54;46.70
33163;BME280;29282;45.656;11.302;2023-04-01T05:33:12;97204.34;;;18.54;46.71
33163;BME280;29282;45.656;11.302;2023-04-01T05:35:38;97207.88;;;18.55;46.66
33163;BME280;29282;45.656;11.302;2023-04-01T05:38:04;97208.22;;;18.53;46.80
33163;BME280;29282;45.656;11.302;2023-04-01T05:40:30;97205.47;;;18.53;46.71
33163;BME280;29282;45.656;11.302;2023-04-01T05:42:56;97216.44;;;18.53;46.70
33163;BME280;29282;45.656;11.302;2023-04-01T05:45:22;97217.22;;;18.54;46.82
33163;BME280;29282;45.656;11.302;2023-04-01T05:47:48;97217.22;;;18.54;46.68
33163;BME280;29282;45.656;11.302;2023-04-01T05:50:13;97216.09;;;18.55;46.51
33163;BME280;29282;45.656;11.302;2023-04-01T05:52:39;97226.28;;;18.54;46.50
33163;BME280;29282;45.656;11.302;2023-04-01T05:55:05;97235.31;;;18.55;46.71
33163;BME280;29282;45.656;11.302;2023-04-01T05:57:31;97230.22;;;18.57;46.57
33163;BME280;29282;45.656;11.302;2023-04-01T05:59:57;97238.47;;;18.57;46.55
33163;BME280;29282;45.656;11.302;2023-04-01T06:02:22;97244.31;;;18.55;46.56
33163;BME280;29282;45.656;11.302;2023-04-01T06:04:48;97242.38;;;18.56;46.60
33163;BME280;29282;45.656;11.302;2023-04-01T06:07:16;97247.84;;;18.56;46.47
33163;BME280;29282;45.656;11.302;2023-04-01T06:09:43;97253.34;;;18.56;46.48
33163;BME280;29282;45.656;11.302;2023-04-01T06:20:12;97254.53;;;18.74;46.03
33163;BME280;29282;45.656;11.302;2023-04-01T06:25:44;97261.59;;;18.75;46.07
33163;BME280;29282;45.656;11.302;2023-04-01T06:29:19;97261.22;;;18.77;45.92
33163;BME280;29282;45.656;11.302;2023-04-01T06:45:45;97266.38;;;18.78;45.95
33163;BME280;29282;45.656;11.302;2023-04-01T06:56:28;97283.66;;;19.21;45.41
33163;BME280;29282;45.656;11.302;2023-04-01T06:59:01;97282.22;;;19.28;45.24
33163;BME280;29282;45.656;11.302;2023-04-01T07:01:50;97281.44;;;19.27;45.29
33163;BME280;29282;45.656;11.302;2023-04-01T07:04:29;97287.78;;;19.31;45.23
33163;BME280;29282;45.656;11.302;2023-04-01T07:06:59;97280.78;;;19.34;45.30
33163;BME280;29282;45.656;11.302;2023-04-01T07:09:35;97284.31;;;19.34;45.25
33163;BME280;29282;45.656;11.302;2023-04-01T07:12:29;97273.38;;;19.38;45.24
33163;BME280;29282;45.656;11.302;2023-04-01T07:14:53;97277.66;;;19.35;45.39
33163;BME280;29282;45.656;11.302;2023-04-01T07:17:26;97274.97;;;19.39;45.24
33163;BME280;29282;45.656;11.302;2023-04-01T07:20:01;97273.78;;;19.40;45.23
33163;BME280;29282;45.656;11.302;2023-04-01T07:22:34;97275.03;;;19.42;45.19
33163;BME280;29282;45.656;11.302;2023-04-01T07:25:05;97271.88;;;19.40;45.32
33163;BME280;29282;45.656;11.302;2023-04-01T07:27:36;97271.47;;;19.42;45.37
33163;BME280;29282;45.656;11.302;2023-04-01T07:30:13;97269.13;;;19.40;45.40
33163;BME280;29282;45.656;11.302;2023-04-01T07:32:44;97276.13;;;19.38;45.50
33163;BME280;29282;45.656;11.302;2023-04-01T07:38:18;97277.75;;;19.42;45.35
33163;BME280;29282;45.656;11.302;2023-04-01T07:40:59;97276.25;;;19.45;45.39
33163;BME280;29282;45.656;11.302;2023-04-01T07:43:44;97279.44;;;19.47;45.34
33163;BME280;29282;45.656;11.302;2023-04-01T07:48:55;97289.66;;;19.50;45.38
33163;BME280;29282;45.656;11.302;2023-04-01T07:51:29;97285.84;;;19.55;45.16
33163;BME280;29282;45.656;11.302;2023-04-01T08:00:27;97289.88;;;19.61;45.21
33163;BME280;29282;45.656;11.302;2023-04-01T08:02:44;97287.13;;;19.61;45.22
33163;BME280;29282;45.656;11.302;2023-04-01T08:10:59;97289.50;;;19.62;45.31
33163;BME280;29282;45.656;11.302;2023-04-01T08:16:41;97287.31;;;19.71;44.83
33163;BME280;29282;45.656;11.302;2023-04-01T08:21:47;97281.06;;;19.98;43.98
33163;BME280;29282;45.656;11.302;2023-04-01T08:24:44;97285.06;;;20.00;43.95
33163;BME280;29282;45.656;11.302;2023-04-01T08:30:33;97281.66;;;20.10;43.96
33163;BME280;29282;45.656;11.302;2023-04-01T08:35:44;97282.84;;;20.13;43.68
33163;BME280;29282;45.656;11.302;2023-04-01T08:38:17;97281.28;;;20.12;43.67
33163;BME280;29282;45.656;11.302;2023-04-01T08:40:57;97282.84;;;20.13;43.67
33163;BME280;29282;45.656;11.302;2023-04-01T08:51:55;97281.38;;;20.19;43.65
33163;BME280;29282;45.656;11.302;2023-04-01T08:57:31;97289.22;;;20.17;43.83
33163;BME280;29282;45.656;11.302;2023-04-01T09:16:16;97297.16;;;20.22;43.88
33163;BME280;29282;45.656;11.302;2023-04-01T09:27:14;97308.88;;;20.19;44.05
33163;BME280;29282;45.656;11.302;2023-04-01T09:32:45;97309.69;;;20.19;44.34
33163;BME280;29282;45.656;11.302;2023-04-01T09:35:38;97307.94;;;20.08;44.45
33163;BME280;29282;45.656;11.302;2023-04-01T09:38:20;97305.81;;;19.98;44.99
33163;BME280;29282;45.656;11.302;2023-04-01T09:43:23;97301.28;;;19.86;45.38
33163;BME280;29282;45.656;11.302;2023-04-01T09:48:52;97299.59;;;19.78;45.95
33163;BME280;29282;45.656;11.302;2023-04-01T09:51:40;97298.38;;;19.75;46.17
33163;BME280;29282;45.656;11.302;2023-04-01T10:08:36;97290.03;;;19.68;46.37
33163;BME280;29282;45.656;11.302;2023-04-01T10:11:30;97285.75;;;19.70;46.37
33163;BME280;29282;45.656;11.302;2023-04-01T10:28:59;97282.69;;;19.76;46.54
33163;BME280;29282;45.656;11.302;2023-04-01T10:48:20;97276.78;;;19.74;46.86
33163;BME280;29282;45.656;11.302;2023-04-01T11:03:08;97281.72;;;19.64;47.07
33163;BME280;29282;45.656;11.302;2023-04-01T11:15:16;97280.97;;;19.67;47.17
33163;BME280;29282;45.656;11.302;2023-04-01T11:23:27;97282.94;;;19.67;47.36
33163;BME280;29282;45.656;11.302;2023-04-01T11:34:50;97282.41;;;19.61;47.52
33163;BME280;29282;45.656;11.302;2023-04-01T11:42:54;97275.25;;;19.57;47.71
33163;BME280;29282;45.656;11.302;2023-04-01T11:45:24;97274.47;;;19.56;47.68
33163;BME280;29282;45.656;11.302;2023-04-01T11:50:53;97264.66;;;19.55;47.77
33163;BME280;29282;45.656;11.302;2023-04-01T12:01:44;97272.28;;;19.42;47.82
33163;BME280;29282;45.656;11.302;2023-04-01T12:06:54;97287.53;;;19.40;47.73
33163;BME280;29282;45.656;11.302;2023-04-01T12:12:11;97289.84;;;19.38;47.74
33163;BME280;29282;45.656;11.302;2023-04-01T12:14:54;97294.13;;;19.35;47.90
33163;BME280;29282;45.656;11.302;2023-04-01T12:20:28;97287.84;;;19.35;47.81
33163;BME280;29282;45.656;11.302;2023-04-01T12:23:57;97285.09;;;19.35;47.72
33163;BME280;29282;45.656;11.302;2023-04-01T12:40:18;97267.84;;;19.57;47.79
33163;BME280;29282;45.656;11.302;2023-04-01T12:51:19;97272.50;;;19.57;47.88
33163;BME280;29282;45.656;11.302;2023-04-01T13:02:02;97275.69;;;19.59;47.58
33163;BME280;29282;45.656;11.302;2023-04-01T13:07:51;97275.69;;;19.59;47.65
33163;BME280;29282;45.656;11.302;2023-04-01T13:15:52;97276.38;;;19.52;47.60
33163;BME280;29282;45.656;11.302;2023-04-01T13:27:14;97263.34;;;19.49;46.74
33163;BME280;29282;45.656;11.302;2023-04-01T13:32:34;97255.91;;;19.49;46.10
33163;BME280;29282;45.656;11.302;2023-04-01T13:35:11;97253.16;;;19.49;45.85
33163;BME280;29282;45.656;11.302;2023-04-01T13:43:01;97245.22;;;19.64;45.29
33163;BME280;29282;45.656;11.302;2023-04-01T14:13:56;97190.53;;;19.36;46.04
33163;BME280;29282;45.656;11.302;2023-04-01T14:22:33;97171.66;;;19.31;46.39
33163;BME280;29282;45.656;11.302;2023-04-01T14:32:14;97173.50;;;19.27;46.48
33163;BME280;29282;45.656;11.302;2023-04-01T14:42:39;97181.63;;;19.19;46.66
33163;BME280;29282;45.656;11.302;2023-04-01T14:45:45;97177.31;;;19.18;46.79
33163;BME280;29282;45.656;11.302;2023-04-01T14:51:02;97167.84;;;19.16;46.75
33163;BME280;29282;45.656;11.302;2023-04-01T14:53:31;97165.47;;;19.14;46.84
33163;BME280;29282;45.656;11.302;2023-04-01T14:56:00;97161.13;;;19.13;46.92
33163;BME280;29282;45.656;11.302;2023-04-01T14:58:44;97155.63;;;19.13;46.77
33163;BME280;29282;45.656;11.302;2023-04-01T15:01:40;97158.38;;;19.13;46.74
33163;BME280;29282;45.656;11.302;2023-04-01T15:25:45;97153.16;;;19.28;47.83
33163;BME280;29282;45.656;11.302;2023-04-01T15:38:38;97139.88;;;19.33;46.61
33163;BME280;29282;45.656;11.302;2023-04-01T15:41:16;97146.59;;;19.36;46.59
33163;BME280;29282;45.656;11.302;2023-04-01T15:52:06;97139.19;;;19.40;46.40
33163;BME280;29282;45.656;11.302;2023-04-01T16:00:31;97134.03;;;19.35;46.28
33163;BME280;29282;45.656;11.302;2023-04-01T16:03:30;97141.91;;;19.36;46.10
33163;BME280;29282;45.656;11.302;2023-04-01T16:22:06;97144.59;;;19.33;46.12
33163;BME280;29282;45.656;11.302;2023-04-01T16:36:12;97137.13;;;19.33;46.21
33163;BME280;29282;45.656;11.302;2023-04-01T16:41:26;97138.69;;;19.31;46.13
33163;BME280;29282;45.656;11.302;2023-04-01T16:46:40;97131.59;;;19.30;46.28
33163;BME280;29282;45.656;11.302;2023-04-01T16:52:13;97134.78;;;19.32;46.06
33163;BME280;29282;45.656;11.302;2023-04-01T16:55:03;97139.53;;;19.35;46.06
33163;BME280;29282;45.656;11.302;2023-04-01T16:57:48;97129.72;;;19.34;45.89
33163;BME280;29282;45.656;11.302;2023-04-01T17:05:17;97129.44;;;19.42;45.90
33163;BME280;29282;45.656;11.302;2023-04-01T17:08:17;97131.00;;;19.43;45.95
33163;BME280;29282;45.656;11.302;2023-04-01T17:10:53;97130.66;;;19.45;46.21
33163;BME280;29282;45.656;11.302;2023-04-01T17:13:46;97142.09;;;19.47;45.91
33163;BME280;29282;45.656;11.302;2023-04-01T17:19:14;97131.09;;;19.47;46.04
33163;BME280;29282;45.656;11.302;2023-04-01T17:21:47;97131.09;;;19.47;45.99
33163;BME280;29282;45.656;11.302;2023-04-01T17:35:42;97151.16;;;19.51;45.77
33163;BME280;29282;45.656;11.302;2023-04-01T17:52:44;97176.72;;;19.55;45.91
33163;BME280;29282;45.656;11.302;2023-04-01T17:55:44;97183.81;;;19.56;45.80
33163;BME280;29282;45.656;11.302;2023-04-01T17:58:29;97196.00;;;19.59;45.62
33163;BME280;29282;45.656;11.302;2023-04-01T18:04:07;97199.50;;;19.56;45.97
33163;BME280;29282;45.656;11.302;2023-04-01T18:06:56;97205.03;;;19.59;45.65
33163;BME280;29282;45.656;11.302;2023-04-01T18:26:32;97231.97;;;19.73;45.41
33163;BME280;29282;45.656;11.302;2023-04-01T18:32:08;97239.09;;;19.74;45.75
33163;BME280;29282;45.656;11.302;2023-04-01T18:39:47;97256.31;;;19.71;45.56
33163;BME280;29282;45.656;11.302;2023-04-01T18:45:26;97260.59;;;19.68;45.59
33163;BME280;29282;45.656;11.302;2023-04-01T18:50:43;97265.63;;;19.66;45.76
33163;BME280;29282;45.656;11.302;2023-04-01T18:53:19;97268.38;;;19.66;45.38
33163;BME280;29282;45.656;11.302;2023-04-01T18:55:52;97273.47;;;19.64;45.39
33163;BME280;29282;45.656;11.302;2023-04-01T19:03:43;97287.53;;;19.63;45.46
33163;BME280;29282;45.656;11.302;2023-04-01T19:06:30;97290.28;;;19.63;45.71
33163;BME280;29282;45.656;11.302;2023-04-01T19:09:20;97289.09;;;19.60;45.55
33163;BME280;29282;45.656;11.302;2023-04-01T19:12:25;97306.78;;;19.63;45.63
33163;BME280;29282;45.656;11.302;2023-04-01T19:23:12;97328.94;;;19.51;45.49
33163;BME280;29282;45.656;11.302;2023-04-01T19:31:37;97346.16;;;19.47;45.36
33163;BME280;29282;45.656;11.302;2023-04-01T19:36:47;97345.72;;;19.45;45.42
33163;BME280;29282;45.656;11.302;2023-04-01T19:42:14;97350.41;;;19.45;45.86
33163;BME280;29282;45.656;11.302;2023-04-01T19:56:17;97370.38;;;19.22;46.26
33163;BME280;29282;45.656;11.302;2023-04-01T20:04:29;97393.44;;;19.18;46.49
33163;BME280;29282;45.656;11.302;2023-04-01T20:07:11;97369.88;;;19.17;46.52
33163;BME280;29282;45.656;11.302;2023-04-01T20:10:10;97388.28;;;19.16;46.63
33163;BME280;29282;45.656;11.302;2023-04-01T20:16:00;97391.75;;;19.13;46.56
33163;BME280;29282;45.656;11.302;2023-04-01T20:18:49;97388.59;;;19.11;46.64
33163;BME280;29282;45.656;11.302;2023-04-01T20:21:26;97385.06;;;19.11;46.70
33163;BME280;29282;45.656;11.302;2023-04-01T20:23:59;97380.69;;;19.10;46.68
33163;BME280;29282;45.656;11.302;2023-04-01T20:26:36;97391.69;;;19.10;46.75
33163;BME280;29282;45.656;11.302;2023-04-01T20:34:39;97391.63;;;19.06;46.83
33163;BME280;29282;45.656;11.302;2023-04-01T20:45:57;97409.59;;;19.04;46.87
33163;BME280;29282;45.656;11.302;2023-04-01T20:48:36;97408.81;;;19.03;46.84
33163;BME280;29282;45.656;11.302;2023-04-01T20:51:15;97398.63;;;19.04;46.81
33163;BME280;29282;45.656;11.302;2023-04-01T20:53:51;97409.97;;;19.02;46.84
33163;BME280;29282;45.656;11.302;2023-04-01T20:56:44;97415.47;;;19.02;46.88
33163;BME280;29282;45.656;11.302;2023-04-01T20:59:16;97417.41;;;19.01;46.85
33163;BME280;29282;45.656;11.302;2023-04-01T21:12:51;97417.34;;;18.98;46.92
33163;BME280;29282;45.656;11.302;2023-04-01T21:26:00;97427.41;;;18.94;47.00
33163;BME280;29282;45.656;11.302;2023-04-01T22:02:45;97418.97;;;18.83;47.20
33163;BME280;29282;45.656;11.302;2023-04-01T22:05:37;97422.50;;;18.84;47.12
33163;BME280;29282;45.656;11.302;2023-04-01T22:08:28;97418.53;;;18.81;47.19
33163;BME280;29282;45.656;11.302;2023-04-01T22:14:19;97411.81;;;18.78;47.19
33163;BME280;29282;45.656;11.302;2023-04-01T22:20:42;97410.22;;;18.77;47.26
33163;BME280;29282;45.656;11.302;2023-04-01T22:23:20;97407.50;;;18.77;47.10
33163;BME280;29282;45.656;11.302;2023-04-01T22:31:29;97403.13;;;18.76;47.13
33163;BME280;29282;45.656;11.302;2023-04-01T22:37:00;97404.63;;;18.74;47.12
33163;BME280;29282;45.656;11.302;2023-04-01T22:49:38;97402.25;;;18.72;47.08
33163;BME280;29282;45.656;11.302;2023-04-01T22:54:39;97409.69;;;18.72;47.22
33163;BME280;29282;45.656;11.302;2023-04-01T23:02:25;97408.44;;;18.69;47.07
33163;BME280;29282;45.656;11.302;2023-04-01T23:04:58;97408.81;;;18.68;47.09
33163;BME280;29282;45.656;11.302;2023-04-01T23:07:54;97409.94;;;18.67;47.12
33163;BME280;29282;45.656;11.302;2023-04-01T23:12:59;97412.69;;;18.67;47.36
33163;BME280;29282;45.656;11.302;2023-04-01T23:15:27;97417.38;;;18.66;47.08
33163;BME280;29282;45.656;11.302;2023-04-01T23:20:49;97416.13;;;18.64;47.09
33163;BME280;29282;45.656;11.302;2023-04-01T23:23:38;97407.13;;;18.63;46.90
33163;BME280;29282;45.656;11.302;2023-04-01T23:26:36;97404.75;;;18.62;47.28
33163;BME280;29282;45.656;11.302;2023-04-01T23:29:15;97416.50;;;18.62;47.13
33163;BME280;29282;45.656;11.302;2023-04-01T23:31:44;97411.72;;;18.59;47.23
33163;BME280;29282;45.656;11.302;2023-04-01T23:36:42;97415.25;;;18.60;47.24
33163;BME280;29282;45.656;11.302;2023-04-01T23:39:24;97424.28;;;18.60;47.16
33163;BME280;29282;45.656;11.302;2023-04-01T23:44:45;97428.56;;;18.58;47.26
33163;BME280;29282;45.656;11.302;2023-04-01T23:47:17;97421.47;;;18.57;47.38
33163;BME280;29282;45.656;11.302;2023-04-01T23:49:47;97424.19;;;18.57;47.25
33163;BME280;29282;45.656;11.302;2023-04-01T23:52:24;97421.84;;;18.55;47.27
33163;BME280;29282;45.656;11.302;2023-04-01T23:55:25;97426.94;;;18.57;47.32
